首页
METAR-TAF:

METAR-TAF

机场 :

红鹿, 艾伯塔, 加拿大

纬度: 52-11N, 经度: 113-54W, 海拔: 905米

当前天气观测

该预报发布于54分钟前的03:00 UTC
风速15节,风向西北,有时为24节阵风
温度 0°C
湿度 55%
气压 1014 hPa
能見度: 14.5公里
阴天层高于4900英尺

METAR: CYQF 110300Z AUTO 32015G24KT 9SM OVC049 M00/M08 A2995 RMK SLP186

时间: 21:54 (03:54 UTC)

预报

该预报发布于3小时和16分钟前的00:38 UTC
预报有效从11日的 00点(UTC)到 11日的 12点(UTC)
风速18节,风向北转西北,有时为28节阵风
能見度: 10公里
多云层高于4000英尺
短暂存在
从 11日的 00点(UTC)到 11日的 03点(UTC)
能見度: 8.0公里
散云层高于2000英尺
阴天层高于4000英尺
小阵雨, 雪, 轻雾
从 11日的 0300点(UTC)
风速18节,风向北转西北,有时为28节阵风
能見度: 10公里
散云层高于2000英尺
多云层高于4000英尺
短暂存在
从 11日的 03点(UTC)到 11日的 12点(UTC)
能見度: 3.2公里
多云层高于2000英尺
小阵雪

TAF: CYQF 110038Z 1100/1112 33018G28KT P6SM BKN040 TEMPO 1100/1103 5SM -SHRASN BR SCT020 OVC040 FM110300 33018G28KT P6SM SCT020 BKN040 TEMPO 1103/1112 2SM -SHSN BKN020 RMK FCST BASED ON AUTO OBS. NXT FCST BY 110600Z

超过4000个机场的气象观测和天气预报(METAR&TAF报告)。

可查询的气象台以黄色和红色小点在地图上表示。

将鼠标移到小点上方,可查看气象台名称。

然后点击查看天气观测和预报。

如需切换地图:点击带黑十字的绿色按钮放大地图;点击带横线的绿色按钮缩小地图;或者点击绿色箭头查看邻近地区的地图。


METAR-TAF: